createdAt,value
2022-09-26T00:01:43.002Z,98660.98
2022-09-26T00:04:27.902Z,98655.79
2022-09-26T00:06:58.676Z,98650.06
2022-09-26T00:09:28.389Z,98652.34
2022-09-26T00:11:57.072Z,98649.05
2022-09-26T00:14:28.218Z,98646.24
2022-09-26T00:16:57.142Z,98648.77
2022-09-26T00:19:25.701Z,98643.84
2022-09-26T00:21:53.955Z,98639.52
2022-09-26T00:24:22.036Z,98636.23
2022-09-26T00:26:50.107Z,98631.66
2022-09-26T00:29:18.281Z,98629.05
2022-09-26T00:31:49.322Z,98625.66
2022-09-26T00:34:20.056Z,98623.48
2022-09-26T00:36:49.973Z,98624.73
2022-09-26T00:39:18.660Z,98621.23
2022-09-26T00:41:47.175Z,98619.11
2022-09-26T00:44:37.227Z,98617.56
2022-09-26T00:47:14.614Z,98620.33
2022-09-26T00:49:45.758Z,98619.39
2022-09-26T00:52:19.978Z,98623.34
2022-09-26T00:54:52.553Z,98623.05
2022-09-26T00:57:33.933Z,98623.73
2022-09-26T01:00:07.937Z,98624.30
2022-09-26T01:02:36.536Z,98621.16
2022-09-26T01:05:07.202Z,98621.23
2022-09-26T01:07:35.707Z,98622.16
2022-09-26T01:10:07.600Z,98620.00
2022-09-26T01:12:38.209Z,98617.84
2022-09-26T01:15:09.214Z,98615.30
2022-09-26T01:17:40.384Z,98612.20
2022-09-26T01:20:17.500Z,98609.42
2022-09-26T01:23:29.297Z,98606.52
2022-09-26T01:26:21.636Z,98602.35
2022-09-26T01:29:08.422Z,98598.77
2022-09-26T01:32:05.602Z,98597.76
2022-09-26T01:34:47.393Z,98597.21
2022-09-26T01:37:49.563Z,98596.46
2022-09-26T01:40:44.211Z,98593.13
2022-09-26T01:43:46.022Z,98587.66
2022-09-26T01:46:34.397Z,98581.16
2022-09-26T01:49:47.188Z,98579.00
2022-09-26T01:52:21.204Z,98580.48
2022-09-26T01:54:52.957Z,98576.84
2022-09-26T01:57:38.427Z,98573.23
2022-09-26T02:00:08.827Z,98569.27
2022-09-26T02:02:46.817Z,98563.21
2022-09-26T02:05:23.748Z,98562.88
2022-09-26T02:08:24.781Z,98557.60
2022-09-26T02:11:02.385Z,98558.24
2022-09-26T02:13:37.806Z,98557.49
2022-09-26T02:16:11.095Z,98556.43
2022-09-26T02:18:49.227Z,98555.23
2022-09-26T02:21:22.316Z,98553.95
2022-09-26T02:23:52.130Z,98554.55
2022-09-26T02:26:23.868Z,98557.91
2022-09-26T02:28:52.880Z,98565.32
2022-09-26T02:31:26.513Z,98565.01
2022-09-26T02:33:54.655Z,98567.41
2022-09-26T02:36:24.775Z,98562.14
2022-09-26T02:38:54.073Z,98560.40
2022-09-26T02:42:21.434Z,98560.52
2022-09-26T02:45:26.040Z,98563.95
2022-09-26T02:48:13.391Z,98562.92
2022-09-26T02:50:48.217Z,98562.23
2022-09-26T02:53:39.224Z,98551.96
2022-09-26T02:56:31.770Z,98546.33
2022-09-26T02:59:12.845Z,98549.54
2022-09-26T03:01:56.790Z,98545.20
2022-09-26T03:04:57.683Z,98542.78
2022-09-26T03:07:33.696Z,98537.41
2022-09-26T03:10:05.550Z,98535.75
2022-09-26T03:12:35.056Z,98532.62
2022-09-26T03:15:06.567Z,98528.92
2022-09-26T03:17:37.134Z,98527.55
2022-09-26T03:20:18.415Z,98527.51
2022-09-26T03:22:46.854Z,98528.67
2022-09-26T03:25:19.267Z,98525.73
2022-09-26T03:27:55.136Z,98525.84
2022-09-26T03:30:24.730Z,98516.61
2022-09-26T03:33:12.769Z,98516.29
2022-09-26T03:35:41.146Z,98508.46
2022-09-26T03:38:14.133Z,98508.52
2022-09-26T03:40:46.996Z,98507.02
2022-09-26T03:43:33.933Z,98500.97
2022-09-26T03:46:07.440Z,98493.63
2022-09-26T03:48:36.117Z,98492.55
2022-09-26T03:51:07.487Z,98491.44
2022-09-26T03:53:42.192Z,98490.61
2022-09-26T03:56:16.098Z,98487.14
2022-09-26T03:58:45.459Z,98482.34
2022-09-26T04:01:17.011Z,98484.73
2022-09-26T04:03:50.273Z,98485.77
2022-09-26T04:06:21.037Z,98485.45
2022-09-26T04:08:51.817Z,98487.45
2022-09-26T04:11:23.247Z,98487.02
2022-09-26T04:13:53.935Z,98488.77
2022-09-26T04:16:24.806Z,98487.23
2022-09-26T04:18:58.232Z,98489.09
2022-09-26T04:21:27.544Z,98492.91
2022-09-26T04:23:57.447Z,98495.19
2022-09-26T04:26:25.518Z,98488.43
2022-09-26T04:28:57.379Z,98485.39
2022-09-26T04:31:38.025Z,98478.94
2022-09-26T04:34:12.166Z,98479.71
2022-09-26T04:36:40.741Z,98486.95
2022-09-26T04:39:08.953Z,98486.26
2022-09-26T04:41:37.806Z,98482.10
2022-09-26T04:44:05.877Z,98485.80
2022-09-26T04:46:34.094Z,98486.97
2022-09-26T04:49:03.331Z,98489.34
2022-09-26T04:51:32.757Z,98490.10
2022-09-26T04:54:01.029Z,98490.13
2022-09-26T04:56:33.606Z,98485.00
2022-09-26T04:59:02.499Z,98479.59
2022-09-26T05:01:50.973Z,98477.53
2022-09-26T05:04:27.647Z,98476.97
2022-09-26T05:06:57.980Z,98478.83
2022-09-26T05:09:32.961Z,98476.88
2022-09-26T05:12:08.027Z,98471.60
2022-09-26T05:14:37.827Z,98476.84
2022-09-26T05:17:06.204Z,98478.20
2022-09-26T05:19:34.890Z,98474.70
2022-09-26T05:22:18.117Z,98474.87
2022-09-26T05:25:05.950Z,98467.60
2022-09-26T05:27:34.841Z,98464.53
2022-09-26T05:30:03.016Z,98465.10
2022-09-26T05:32:31.188Z,98463.52
2022-09-26T05:34:59.669Z,98457.73
2022-09-26T05:37:30.096Z,98455.48
2022-09-26T05:40:17.079Z,98444.00
2022-09-26T05:42:48.869Z,98447.93
2022-09-26T05:45:17.144Z,98448.73
2022-09-26T05:47:48.906Z,98453.42
2022-09-26T05:50:17.793Z,98452.91
2022-09-26T05:52:46.373Z,98452.19
2022-09-26T05:55:22.844Z,98451.42
2022-09-26T05:58:10.271Z,98442.59
2022-09-26T06:01:18.436Z,98448.45
2022-09-26T06:03:47.577Z,98453.69
2022-09-26T06:06:21.586Z,98454.70
2022-09-26T06:08:55.189Z,98447.15
2022-09-26T06:11:52.551Z,98452.90
2022-09-26T06:14:24.599Z,98452.40
2022-09-26T06:16:53.093Z,98455.86
2022-09-26T06:19:23.083Z,98455.06
2022-09-26T06:21:51.795Z,98452.90
2022-09-26T06:24:21.504Z,98451.48
2022-09-26T06:26:53.057Z,98454.20
2022-09-26T06:29:21.231Z,98454.67
2022-09-26T06:31:50.805Z,98447.63
2022-09-26T06:34:51.985Z,98447.36
2022-09-26T06:37:46.567Z,98441.66
2022-09-26T06:40:15.033Z,98441.56
2022-09-26T06:42:43.751Z,98440.58
2022-09-26T06:45:25.742Z,98437.35
2022-09-26T06:48:21.097Z,98429.56
2022-09-26T06:51:00.711Z,98432.86
2022-09-26T06:53:31.736Z,98437.50
2022-09-26T06:56:01.711Z,98436.75
2022-09-26T06:58:31.256Z,98437.10
2022-09-26T07:01:06.885Z,98436.72
2022-09-26T07:03:54.485Z,98439.05
2022-09-26T07:06:41.553Z,98439.66
2022-09-26T07:09:12.208Z,98435.27
2022-09-26T07:12:19.986Z,98438.02
2022-09-26T07:14:52.804Z,98439.52
2022-09-26T07:17:29.645Z,98436.80
2022-09-26T07:20:20.246Z,98428.75
2022-09-26T07:23:17.093Z,98428.04
2022-09-26T07:25:47.231Z,98424.30
2022-09-26T07:28:15.592Z,98425.48
2022-09-26T07:30:51.546Z,98431.17
2022-09-26T07:33:42.144Z,98432.50
2022-09-26T07:36:12.367Z,98434.40
2022-09-26T07:38:41.256Z,98438.40
2022-09-26T07:41:11.186Z,98443.94
2022-09-26T07:46:48.103Z,98439.48
2022-09-26T07:49:35.391Z,98440.52
2022-09-26T07:52:22.710Z,98441.72
2022-09-26T07:55:14.031Z,98434.85
2022-09-26T07:58:00.432Z,98430.78
2022-09-26T08:00:38.437Z,98437.40
2022-09-26T08:03:43.783Z,98435.56
2022-09-26T08:06:22.707Z,98431.52
2022-09-26T08:08:55.181Z,98432.41
2022-09-26T08:11:42.196Z,98429.67
2022-09-26T08:14:42.525Z,98427.30
2022-09-26T08:17:17.559Z,98425.61
2022-09-26T08:19:45.734Z,98429.92
2022-09-26T08:22:14.716Z,98431.38
2022-09-26T08:24:45.459Z,98431.73
2022-09-26T08:27:33.640Z,98430.70
2022-09-26T08:30:03.010Z,98425.51
2022-09-26T08:32:32.583Z,98425.83
2022-09-26T08:35:01.195Z,98422.51
2022-09-26T08:37:47.390Z,98421.04
2022-09-26T08:40:59.886Z,98418.19
2022-09-26T08:44:05.886Z,98422.58
2022-09-26T08:46:57.284Z,98416.27
2022-09-26T08:50:12.663Z,98417.50
2022-09-26T08:52:57.219Z,98416.98
2022-09-26T08:55:40.139Z,98411.27
2022-09-26T08:58:16.130Z,98411.63
2022-09-26T09:00:46.317Z,98414.58
2022-09-26T09:03:26.269Z,98422.02
2022-09-26T09:06:11.951Z,98420.11
2022-09-26T09:08:46.170Z,98416.27
2022-09-26T09:11:44.037Z,98417.23
2022-09-26T09:14:27.469Z,98415.96
2022-09-26T09:17:44.386Z,98413.58
2022-09-26T09:20:46.966Z,98410.75
2022-09-26T09:24:04.705Z,98410.27
2022-09-26T09:30:17.570Z,98403.23
2022-09-26T09:33:12.646Z,98400.48
2022-09-26T09:36:07.956Z,98404.60
2022-09-26T09:39:06.440Z,98409.28
2022-09-26T09:42:02.470Z,98407.80
2022-09-26T09:44:43.061Z,98408.77
2022-09-26T09:47:19.089Z,98404.76
2022-09-26T09:49:49.622Z,98405.53
2022-09-26T09:52:21.274Z,98408.67
2022-09-26T09:54:53.544Z,98406.59
2022-09-26T09:57:34.723Z,98405.88
2022-09-26T10:00:15.294Z,98404.79
2022-09-26T10:02:59.888Z,98406.49
2022-09-26T10:05:39.485Z,98405.13
2022-09-26T10:08:14.095Z,98409.92
2022-09-26T10:11:28.674Z,98411.89
2022-09-26T10:14:03.552Z,98413.16
2022-09-26T10:17:09.586Z,98412.59
2022-09-26T10:19:45.124Z,98407.42
2022-09-26T10:22:45.254Z,98403.60
2022-09-26T10:25:26.485Z,98400.38
2022-09-26T10:28:01.448Z,98398.95
2022-09-26T10:30:33.411Z,98397.38
2022-09-26T10:33:06.295Z,98396.17
2022-09-26T10:35:41.642Z,98397.52
2022-09-26T10:38:23.223Z,98396.55
2022-09-26T10:41:25.189Z,98391.62
2022-09-26T10:43:56.538Z,98389.61
2022-09-26T10:46:51.583Z,98390.15
2022-09-26T10:49:36.509Z,98387.56
2022-09-26T10:52:30.385Z,98380.98
2022-09-26T10:55:13.307Z,98380.38
2022-09-26T10:57:49.054Z,98379.16
2022-09-26T11:00:42.522Z,98376.73
2022-09-26T11:03:34.797Z,98378.66
2022-09-26T11:06:40.821Z,98371.41
2022-09-26T11:09:28.963Z,98367.23
2022-09-26T11:11:57.034Z,98363.06
2022-09-26T11:14:32.989Z,98364.59
2022-09-26T11:17:13.044Z,98362.29
2022-09-26T11:19:55.031Z,98363.11
2022-09-26T11:22:54.561Z,98359.43
2022-09-26T11:25:32.144Z,98359.63
2022-09-26T11:28:09.227Z,98358.40
2022-09-26T11:30:56.924Z,98354.91
2022-09-26T11:33:26.872Z,98358.16
2022-09-26T11:36:55.053Z,98354.71
2022-09-26T11:39:35.313Z,98352.88
2022-09-26T11:42:09.629Z,98349.43
2022-09-26T11:44:43.435Z,98347.45
2022-09-26T11:47:38.641Z,98340.75
2022-09-26T11:50:12.452Z,98336.77
2022-09-26T11:53:20.762Z,98336.91
2022-09-26T11:56:16.176Z,98332.10
2022-09-26T11:59:02.370Z,98335.76
2022-09-26T12:01:39.048Z,98340.19
2022-09-26T12:04:19.712Z,98337.52
2022-09-26T12:06:54.336Z,98334.19
2022-09-26T12:09:45.554Z,98330.68
2022-09-26T12:12:24.578Z,98331.35
2022-09-26T12:15:25.829Z,98329.36
2022-09-26T12:18:21.443Z,98328.52
2022-09-26T12:20:58.731Z,98325.42
2022-09-26T12:23:34.483Z,98324.58
2022-09-26T12:26:08.905Z,98317.62
2022-09-26T12:29:24.079Z,98316.39
2022-09-26T12:32:24.306Z,98315.91
2022-09-26T12:35:05.379Z,98318.02
2022-09-26T12:37:57.617Z,98318.08
2022-09-26T12:40:46.115Z,98319.48
2022-09-26T12:43:59.194Z,98319.04
2022-09-26T12:46:30.100Z,98321.79
2022-09-26T12:49:36.501Z,98321.45
2022-09-26T12:52:10.911Z,98319.30
2022-09-26T12:54:59.780Z,98322.56
2022-09-26T12:58:02.155Z,98320.69
2022-09-26T13:00:44.154Z,98319.39
2022-09-26T13:03:17.954Z,98317.27
2022-09-26T13:06:08.805Z,98318.09
2022-09-26T13:09:03.663Z,98319.74
2022-09-26T13:12:26.738Z,98318.35
2022-09-26T13:15:19.578Z,98319.52
2022-09-26T13:18:00.858Z,98315.55
2022-09-26T13:20:41.530Z,98317.47
2022-09-26T13:23:20.450Z,98308.74
2022-09-26T13:26:03.473Z,98309.15
2022-09-26T13:28:55.706Z,98313.56
2022-09-26T13:31:38.397Z,98314.19
2022-09-26T13:34:29.842Z,98312.56
2022-09-26T13:36:59.606Z,98306.80
2022-09-26T13:39:48.410Z,98309.86
2022-09-26T13:42:28.669Z,98301.50
2022-09-26T13:45:02.578Z,98303.84
2022-09-26T13:47:46.726Z,98302.98
2022-09-26T13:50:42.050Z,98303.76
2022-09-26T13:53:43.070Z,98302.89
2022-09-26T13:56:36.394Z,98302.46
2022-09-26T13:59:18.339Z,98297.15
2022-09-26T14:02:05.880Z,98295.42
2022-09-26T14:04:36.293Z,98295.94
2022-09-26T14:07:28.839Z,98290.02
2022-09-26T14:10:08.964Z,98287.88
2022-09-26T14:13:08.198Z,98288.86
2022-09-26T14:15:48.694Z,98285.45
2022-09-26T14:18:34.659Z,98284.57
2022-09-26T14:21:41.121Z,98282.52
2022-09-26T14:24:21.175Z,98280.30
2022-09-26T14:26:58.747Z,98281.16
2022-09-26T14:29:49.970Z,98271.39
2022-09-26T14:32:23.670Z,98272.33
2022-09-26T14:34:54.929Z,98274.49
2022-09-26T14:37:25.969Z,98279.35
2022-09-26T14:40:00.335Z,98277.81
2022-09-26T14:42:43.924Z,98277.98
2022-09-26T14:45:16.807Z,98280.70
2022-09-26T14:47:48.772Z,98279.04
2022-09-26T14:50:25.039Z,98279.62
2022-09-26T14:52:59.863Z,98277.75
2022-09-26T14:55:30.809Z,98279.39
2022-09-26T14:58:34.406Z,98277.45
2022-09-26T15:01:19.344Z,98276.98
2022-09-26T15:03:56.463Z,98275.23
2022-09-26T15:06:26.679Z,98275.14
2022-09-26T15:08:55.876Z,98275.52
2022-09-26T15:11:33.058Z,98276.04
2022-09-26T15:14:13.097Z,98275.77
2022-09-26T15:16:47.943Z,98272.52
2022-09-26T15:19:33.729Z,98270.23
2022-09-26T15:22:12.832Z,98270.88
2022-09-26T15:24:41.056Z,98269.02
2022-09-26T15:27:29.588Z,98272.21
2022-09-26T15:30:18.644Z,98268.85
2022-09-26T15:32:50.409Z,98268.05
2022-09-26T15:35:19.501Z,98270.02
2022-09-26T15:37:48.087Z,98270.02
2022-09-26T15:40:19.120Z,98269.19
2022-09-26T15:43:01.841Z,98271.86
2022-09-26T15:45:33.746Z,98272.55
2022-09-26T15:48:24.504Z,98271.33
2022-09-26T15:51:02.515Z,98275.67
2022-09-26T15:53:36.622Z,98275.13
2022-09-26T15:56:09.791Z,98278.13
2022-09-26T15:58:50.377Z,98280.98
2022-09-26T16:01:22.099Z,98282.53
2022-09-26T16:04:00.038Z,98286.95
2022-09-26T16:06:35.993Z,98282.91
2022-09-26T16:09:34.682Z,98284.16
2022-09-26T16:12:11.614Z,98275.27
2022-09-26T16:14:51.000Z,98269.91
2022-09-26T16:17:32.791Z,98266.80
2022-09-26T16:20:09.668Z,98259.70
2022-09-26T16:22:39.449Z,98257.92
2022-09-26T16:25:39.398Z,98259.70
2022-09-26T16:28:10.544Z,98258.92
2022-09-26T16:30:45.414Z,98257.30
2022-09-26T16:33:30.891Z,98257.52
2022-09-26T16:36:18.588Z,98255.34
2022-09-26T16:38:53.926Z,98259.45
2022-09-26T16:41:56.275Z,98259.41
2022-09-26T16:44:34.508Z,98252.10
2022-09-26T16:47:25.519Z,98251.21
2022-09-26T16:49:53.590Z,98249.31
2022-09-26T16:52:32.087Z,98256.16
2022-09-26T16:55:02.944Z,98257.88
2022-09-26T16:57:35.007Z,98257.73
2022-09-26T17:00:39.125Z,98255.46
2022-09-26T17:03:29.765Z,98256.42
2022-09-26T17:05:59.791Z,98258.93
2022-09-26T17:08:28.479Z,98255.28
2022-09-26T17:11:02.014Z,98252.41
2022-09-26T17:13:35.432Z,98246.31
2022-09-26T17:16:03.950Z,98245.28
2022-09-26T17:18:34.023Z,98239.05
2022-09-26T17:21:02.725Z,98239.77
2022-09-26T17:23:40.338Z,98240.27
2022-09-26T17:26:18.615Z,98237.82
2022-09-26T17:28:46.789Z,98234.34
2022-09-26T17:31:20.234Z,98229.34
2022-09-26T17:33:52.644Z,98225.16
2022-09-26T17:36:29.516Z,98229.13
2022-09-26T17:39:02.637Z,98229.49
2022-09-26T17:41:32.848Z,98229.70
2022-09-26T17:44:01.274Z,98232.63
2022-09-26T17:46:29.773Z,98233.23
2022-09-26T17:48:59.505Z,98233.16
2022-09-26T17:51:27.591Z,98233.38
2022-09-26T17:53:57.572Z,98235.54
2022-09-26T17:56:26.715Z,98236.15
2022-09-26T17:58:56.004Z,98239.84
2022-09-26T18:01:30.479Z,98235.59
2022-09-26T18:04:02.572Z,98233.64
2022-09-26T18:06:33.110Z,98235.33
2022-09-26T18:09:07.735Z,98238.00
2022-09-26T18:11:37.556Z,98238.66
2022-09-26T18:14:07.051Z,98235.34
2022-09-26T18:16:35.447Z,98231.38
2022-09-26T18:19:07.584Z,98235.30
2022-09-26T18:21:36.629Z,98234.70
2022-09-26T18:24:07.157Z,98234.16
2022-09-26T18:26:42.477Z,98237.60
2022-09-26T18:29:15.451Z,98233.14
2022-09-26T18:31:46.074Z,98236.73
2022-09-26T18:34:18.997Z,98238.52
2022-09-26T18:36:50.322Z,98239.70
2022-09-26T18:39:18.992Z,98239.15
2022-09-26T18:41:51.282Z,98240.16
2022-09-26T18:44:20.580Z,98243.36
2022-09-26T18:46:49.508Z,98238.98
2022-09-26T18:49:18.153Z,98243.41
2022-09-26T18:51:47.039Z,98240.56
2022-09-26T18:54:17.393Z,98241.31
2022-09-26T18:57:04.383Z,98240.84
2022-09-26T18:59:32.562Z,98235.48
2022-09-26T19:02:02.890Z,98233.98
2022-09-26T19:04:31.952Z,98234.91
2022-09-26T19:07:04.791Z,98240.72
2022-09-26T19:09:35.511Z,98236.08
2022-09-26T19:12:04.282Z,98236.89
2022-09-26T19:14:32.966Z,98236.13
2022-09-26T19:17:05.030Z,98236.02
2022-09-26T19:19:33.411Z,98236.27
2022-09-26T19:22:08.345Z,98238.27
2022-09-26T19:24:38.360Z,98236.52
2022-09-26T19:27:25.251Z,98239.67
2022-09-26T19:30:15.359Z,98248.18
2022-09-26T19:32:46.810Z,98249.52
2022-09-26T19:35:25.939Z,98251.82
2022-09-26T19:37:54.323Z,98250.81
2022-09-26T19:40:23.655Z,98252.99
2022-09-26T19:42:52.172Z,98250.96
2022-09-26T19:45:21.810Z,98248.75
2022-09-26T19:47:54.715Z,98246.37
2022-09-26T19:50:25.944Z,98243.33
2022-09-26T19:52:56.683Z,98244.41
2022-09-26T19:55:30.069Z,98242.43
2022-09-26T19:58:03.158Z,98241.42
2022-09-26T20:00:31.253Z,98244.84
2022-09-26T20:02:59.474Z,98243.16
2022-09-26T20:05:28.190Z,98240.80
2022-09-26T20:07:56.266Z,98239.27
2022-09-26T20:10:27.203Z,98241.77
2022-09-26T20:12:55.275Z,98243.04
2022-09-26T20:15:24.368Z,98242.73
2022-09-26T20:17:55.210Z,98242.02
2022-09-26T20:20:25.427Z,98240.66
2022-09-26T20:22:55.505Z,98240.48
2022-09-26T20:25:31.706Z,98241.41
2022-09-26T20:28:00.363Z,98239.23
2022-09-26T20:30:47.309Z,98236.14
2022-09-26T20:33:15.588Z,98234.00
2022-09-26T20:35:46.318Z,98232.86
2022-09-26T20:38:37.018Z,98233.98
2022-09-26T20:41:19.019Z,98234.00
2022-09-26T20:43:50.260Z,98233.02
2022-09-26T20:46:22.202Z,98233.77
2022-09-26T20:48:51.420Z,98234.00
2022-09-26T20:51:31.261Z,98231.36
2022-09-26T20:54:00.875Z,98232.96
2022-09-26T20:56:29.537Z,98233.33
2022-09-26T20:58:57.595Z,98231.94
2022-09-26T21:01:28.388Z,98234.43
2022-09-26T21:03:56.643Z,98236.02
2022-09-26T21:06:33.318Z,98238.65
2022-09-26T21:09:02.925Z,98237.02
2022-09-26T21:11:30.994Z,98238.39
2022-09-26T21:13:59.065Z,98233.15
2022-09-26T21:16:27.322Z,98232.45
2022-09-26T21:18:55.620Z,98236.29
2022-09-26T21:21:30.551Z,98235.11
2022-09-26T21:23:59.654Z,98231.77
2022-09-26T21:26:30.067Z,98229.47
2022-09-26T21:28:58.350Z,98227.85
2022-09-26T21:31:30.208Z,98226.42
2022-09-26T21:34:00.339Z,98224.36
2022-09-26T21:36:39.687Z,98220.02
2022-09-26T21:39:07.904Z,98221.02
2022-09-26T21:41:36.788Z,98219.95
2022-09-26T21:44:12.973Z,98219.20
2022-09-26T21:46:41.086Z,98219.91
2022-09-26T21:49:09.309Z,98217.64
2022-09-26T21:51:37.616Z,98214.02
2022-09-26T21:54:26.780Z,98212.29
2022-09-26T21:57:00.894Z,98206.70
2022-09-26T21:59:30.296Z,98206.21
2022-09-26T22:01:58.497Z,98199.71
2022-09-26T22:04:26.745Z,98192.51
2022-09-26T22:06:54.822Z,98189.02
2022-09-26T22:09:23.092Z,98184.27
2022-09-26T22:11:51.165Z,98183.73
2022-09-26T22:14:19.234Z,98180.05
2022-09-26T22:16:47.367Z,98180.57
2022-09-26T22:19:15.603Z,98181.47
2022-09-26T22:21:43.859Z,98178.80
2022-09-26T22:24:12.838Z,98177.26
2022-09-26T22:26:40.925Z,98173.10
2022-09-26T22:29:09.086Z,98175.76
2022-09-26T22:31:37.169Z,98171.56
2022-09-26T22:34:05.240Z,98168.77
2022-09-26T22:36:33.618Z,98168.23
2022-09-26T22:39:02.015Z,98165.65
2022-09-26T22:41:30.067Z,98164.98
2022-09-26T22:43:58.344Z,98162.44
2022-09-26T22:46:26.474Z,98157.76
2022-09-26T22:48:58.993Z,98154.15
2022-09-26T22:51:30.033Z,98147.95
2022-09-26T22:53:58.104Z,98147.45
2022-09-26T22:56:26.175Z,98150.50
2022-09-26T22:58:54.861Z,98145.77
2022-09-26T23:01:25.792Z,98142.55
2022-09-26T23:03:54.384Z,98141.02
2022-09-26T23:06:23.687Z,98137.26
2022-09-26T23:08:52.147Z,98134.23
2022-09-26T23:11:20.650Z,98129.56
2022-09-26T23:13:52.295Z,98129.27
2022-09-26T23:16:23.416Z,98127.80
2022-09-26T23:18:52.503Z,98121.66
2022-09-26T23:21:26.244Z,98123.90
2022-09-26T23:23:56.977Z,98127.73
2022-09-26T23:26:28.222Z,98128.42
2022-09-26T23:28:57.625Z,98127.39
2022-09-26T23:31:27.821Z,98125.16
2022-09-26T23:33:57.556Z,98119.15
2022-09-26T23:36:25.732Z,98120.05
2022-09-26T23:38:54.090Z,98115.02
2022-09-26T23:41:22.186Z,98111.75
2022-09-26T23:43:50.252Z,98104.81
2022-09-26T23:46:18.532Z,98105.67
2022-09-26T23:48:46.704Z,98104.58
2022-09-26T23:51:14.773Z,98101.14
2022-09-26T23:53:42.844Z,98098.76
2022-09-26T23:56:14.405Z,98099.14
2022-09-26T23:58:42.854Z,98100.59
